Time;durP1;ratioP1;P1;durP2;ratioP2;P2;SDS_P1;SDS_P2;PMS_P1;PMS_P2;Temp;Humidity;BMP_temperature;BMP_pressure;BME280_temperature;BME280_humidity;BME280_pressure;Samples;Min_cycle;Max_cycle;Signal;HPM_P1;HPM_P2
2022/06/29 00:03:44;;;;;;;4.43;2.58;;;;;;;18.62;69.86;96049.50;10367307;28;98502;-71
2022/06/29 00:08:47;;;;;;;4.35;2.42;;;;;;;18.58;69.79;96059.69;10370143;28;97240;-71
2022/06/29 00:13:50;;;;;;;4.70;2.60;;;;;;;18.54;70.23;96041.78;10372569;28;98542;-71
2022/06/29 00:18:55;;;;;;;4.80;2.40;;;;;;;18.52;69.94;96039.34;10369390;28;99390;-71
2022/06/29 00:23:57;;;;;;;3.75;2.60;;;;;;;18.55;69.19;96040.75;10371566;28;101052;-71
2022/06/29 00:29:00;;;;;;;2.97;2.67;;;;;;;18.54;69.76;96039.94;10371768;28;98882;-72
2022/06/29 00:34:04;;;;;;;3.58;2.45;;;;;;;18.49;69.88;96035.25;10369816;28;96824;-71
2022/06/29 00:39:07;;;;;;;3.83;2.70;;;;;;;18.53;69.51;96024.28;10371134;28;98205;-71
2022/06/29 00:44:14;;;;;;;3.78;2.58;;;;;;;18.57;69.69;96014.91;10365493;28;98949;-71
2022/06/29 00:49:20;;;;;;;3.70;2.70;;;;;;;18.58;69.82;96013.91;10365403;28;98626;-71
2022/06/29 00:54:24;;;;;;;3.17;2.78;;;;;;;18.55;70.41;96016.94;10364149;28;98444;-71
2022/06/29 00:59:28;;;;;;;4.65;2.67;;;;;;;18.47;70.39;96010.84;10369045;28;100327;-72
2022/06/29 01:04:32;;;;;;;3.80;2.92;;;;;;;18.45;70.21;96012.09;10371636;28;98819;-71
2022/06/29 01:09:36;;;;;;;5.38;3.13;;;;;;;18.47;70.57;96015.34;10369066;28;98782;-72
2022/06/29 01:14:41;;;;;;;3.92;2.38;;;;;;;18.34;71.75;96002.91;10368942;28;98827;-71
2022/06/29 01:19:45;;;;;;;3.88;2.40;;;;;;;18.28;72.46;96011.66;10371467;28;97742;-71
2022/06/29 01:24:51;;;;;;;3.53;2.85;;;;;;;18.25;72.18;96009.41;10375076;28;96975;-71
2022/06/29 01:29:54;;;;;;;3.00;2.50;;;;;;;18.24;71.86;96000.66;10378215;28;96945;-70
2022/06/29 01:34:56;;;;;;;4.97;3.05;;;;;;;18.20;72.28;95999.41;10366360;28;97526;-71
2022/06/29 01:40:01;;;;;;;9.13;2.97;;;;;;;18.11;72.79;96000.63;10365715;28;97095;-71
2022/06/29 01:45:04;;;;;;;3.63;2.60;;;;;;;18.06;72.58;96003.88;10364056;28;99227;-72
2022/06/29 01:50:08;;;;;;;6.80;3.20;;;;;;;17.95;72.96;96001.84;10362528;28;98403;-71
2022/06/29 01:55:12;;;;;;;6.35;2.72;;;;;;;17.86;72.75;95995.09;10364634;28;98756;-71
2022/06/29 02:00:16;;;;;;;4.60;2.83;;;;;;;17.76;73.68;95988.31;10366834;28;96913;-71
2022/06/29 02:05:19;;;;;;;3.75;2.80;;;;;;;17.65;73.67;95986.28;10361920;28;98818;-72
2022/06/29 02:10:24;;;;;;;3.17;2.45;;;;;;;17.48;74.14;95979.72;10369611;28;97162;-71
2022/06/29 02:15:26;;;;;;;;;;;;;;;17.35;73.21;95976.00;10363095;28;96831;-71
2022/06/29 02:20:30;;;;;;;7.05;3.15;;;;;;;17.24;73.97;95976.56;10368000;28;98725;-71
2022/06/29 02:25:34;;;;;;;11.20;3.40;;;;;;;17.10;74.55;95972.22;10373257;28;97171;-71
2022/06/29 02:35:58;;;;;;;4.10;3.13;;;;;;;16.75;75.61;95980.94;10357313;28;99195;-71
2022/06/29 02:41:02;;;;;;;5.80;2.88;;;;;;;16.66;75.23;95975.97;10366044;28;98894;-71
2022/06/29 02:46:05;;;;;;;4.22;2.75;;;;;;;16.69;75.38;95981.66;10361868;28;97442;-70
2022/06/29 02:51:08;;;;;;;5.30;3.25;;;;;;;16.74;75.56;95983.75;10362450;28;99792;-71
2022/06/29 02:56:12;;;;;;;3.25;2.85;;;;;;;16.78;75.42;95974.47;10366647;28;98956;-71
2022/06/29 03:01:15;;;;;;;6.80;2.88;;;;;;;16.72;75.53;95983.13;10372318;28;97315;-70
2022/06/29 03:06:18;;;;;;;3.45;2.90;;;;;;;16.71;75.31;95978.84;10364437;28;98847;-71
2022/06/29 03:11:23;;;;;;;4.93;2.72;;;;;;;16.75;74.87;95970.38;10364786;28;96871;-71
2022/06/29 03:16:25;;;;;;;5.60;2.90;;;;;;;16.76;74.77;95965.91;10363707;28;99406;-71
2022/06/29 03:21:28;;;;;;;3.03;2.58;;;;;;;16.73;74.28;95972.38;10362479;28;98641;-71
2022/06/29 03:26:33;;;;;;;4.88;2.92;;;;;;;16.69;74.59;95972.94;10362440;28;98740;-71
2022/06/29 03:31:36;;;;;;;3.50;3.05;;;;;;;16.67;74.32;95977.59;10363417;28;96855;-71
2022/06/29 03:36:39;;;;;;;4.80;2.50;;;;;;;16.57;74.35;95977.94;10366743;28;97017;-71
2022/06/29 03:41:43;;;;;;;3.67;3.05;;;;;;;16.47;74.68;95983.56;10365473;28;98467;-71
2022/06/29 03:46:46;;;;;;;4.55;3.20;;;;;;;16.39;74.74;95989.75;10365500;28;96843;-71
2022/06/29 03:51:49;;;;;;;5.07;3.00;;;;;;;16.19;75.85;95986.13;10362746;28;98660;-71
2022/06/29 03:56:53;;;;;;;4.93;3.00;;;;;;;16.02;76.88;95977.69;10361696;28;97637;-71
2022/06/29 04:01:56;;;;;;;5.30;3.00;;;;;;;15.99;76.70;95988.59;10368770;28;98497;-71
2022/06/29 04:06:59;;;;;;;5.78;3.50;;;;;;;15.85;77.85;95985.00;10360234;28;98485;-71
2022/06/29 04:12:04;;;;;;;3.58;2.92;;;;;;;15.71;77.98;95972.72;10362630;28;98603;-70
2022/06/29 04:17:06;;;;;;;6.28;3.00;;;;;;;15.70;77.75;95971.88;10364383;28;98042;-71
2022/06/29 04:22:09;;;;;;;4.93;3.25;;;;;;;15.78;77.29;95969.13;10365486;28;99263;-70
2022/06/29 04:27:14;;;;;;;5.53;3.10;;;;;;;15.83;77.28;95966.75;10368631;28;98555;-71
2022/06/29 04:32:17;;;;;;;3.13;2.65;;;;;;;15.93;77.10;95966.47;10364506;28;98790;-71
2022/06/29 04:37:20;;;;;;;3.75;3.00;;;;;;;16.07;76.47;95962.13;10369461;28;96938;-72
2022/06/29 04:42:24;;;;;;;3.95;2.83;;;;;;;16.14;76.60;95963.00;10365303;28;99533;-72
2022/06/29 04:47:27;;;;;;;5.73;3.20;;;;;;;16.15;77.51;95967.25;10371071;28;98526;-70
2022/06/29 04:52:29;;;;;;;3.35;2.67;;;;;;;16.08;78.05;95958.47;10375556;28;98012;-71
2022/06/29 04:57:34;;;;;;;4.78;3.55;;;;;;;16.07;78.35;95970.03;10365604;28;100609;-71
2022/06/29 05:02:36;;;;;;;6.03;3.30;;;;;;;16.15;78.06;95963.81;10365374;28;99065;-70
2022/06/29 05:07:39;;;;;;;4.50;3.50;;;;;;;16.27;77.87;95958.84;10373246;28;97921;-71
2022/06/29 05:12:44;;;;;;;4.35;3.00;;;;;;;16.40;77.26;95966.88;10374159;28;98020;-71
2022/06/29 05:17:47;;;;;;;6.35;3.13;;;;;;;16.53;77.05;95961.69;10374436;28;98706;-71
2022/06/29 05:22:50;;;;;;;6.03;3.63;;;;;;;16.65;76.50;95946.16;10367878;28;97914;-71
2022/06/29 05:27:54;;;;;;;4.55;3.13;;;;;;;16.81;76.33;95963.53;10363674;28;98620;-71
2022/06/29 05:32:57;;;;;;;9.20;3.35;;;;;;;17.04;75.44;95952.72;10366779;28;98884;-71
2022/06/29 05:38:01;;;;;;;5.18;3.70;;;;;;;17.30;75.15;95952.03;10370362;28;99244;-71
2022/06/29 05:43:07;;;;;;;6.60;3.00;;;;;;;17.64;74.14;95952.94;10364578;28;98732;-71
2022/06/29 05:48:10;;;;;;;4.88;3.22;;;;;;;18.04;73.28;95952.25;10365137;28;98568;-71
2022/06/29 05:53:14;;;;;;;5.45;3.15;;;;;;;18.40;73.14;95951.84;10367438;28;98659;-71
2022/06/29 05:58:20;;;;;;;5.77;3.37;;;;;;;18.68;71.33;95954.25;10364642;28;100021;-71
2022/06/29 06:03:22;;;;;;;3.90;3.25;;;;;;;18.88;71.17;95956.94;10369142;28;98946;-71
2022/06/29 06:08:25;;;;;;;5.57;2.92;;;;;;;19.08;70.77;95952.59;10375860;28;100497;-71
2022/06/29 06:13:30;;;;;;;6.57;3.47;;;;;;;19.23;70.14;95956.63;10374400;28;98870;-71
2022/06/29 06:18:33;;;;;;;5.18;2.72;;;;;;;19.39;69.58;95949.22;10370151;28;100797;-71
2022/06/29 06:23:35;;;;;;;5.22;3.03;;;;;;;19.48;70.12;95947.97;10371204;28;97042;-71
2022/06/29 06:28:40;;;;;;;5.70;2.72;;;;;;;19.56;69.16;95947.72;10368320;28;98781;-72
2022/06/29 06:33:42;;;;;;;4.10;2.88;;;;;;;19.54;68.31;95944.47;10368679;28;96846;-71
2022/06/29 06:38:45;;;;;;;4.05;3.20;;;;;;;19.45;68.49;95937.78;10365373;28;98472;-71
2022/06/29 06:43:50;;;;;;;4.97;3.60;;;;;;;19.39;68.41;95933.34;10362719;28;98019;-72
2022/06/29 06:48:53;;;;;;;4.75;3.13;;;;;;;19.46;68.57;95930.66;10363185;28;96953;-72
2022/06/29 06:53:56;;;;;;;4.70;3.20;;;;;;;19.54;68.22;95936.53;10367303;28;99431;-71
2022/06/29 06:59:00;;;;;;;4.70;3.65;;;;;;;19.60;67.73;95940.97;10370269;28;97067;-71
2022/06/29 07:04:04;;;;;;;5.75;3.80;;;;;;;19.76;67.51;95941.50;10370319;28;96871;-71
2022/06/29 07:09:07;;;;;;;5.43;3.80;;;;;;;19.75;67.54;95946.00;10370316;28;97629;-71
2022/06/29 07:14:12;;;;;;;4.57;3.47;;;;;;;19.80;67.21;95951.47;10373052;28;97268;-72
2022/06/29 07:19:14;;;;;;;5.30;3.28;;;;;;;19.99;66.66;95954.22;10372382;28;97056;-71
2022/06/29 07:24:17;;;;;;;4.38;3.22;;;;;;;20.17;65.92;95946.38;10370887;28;97054;-71
2022/06/29 07:29:21;;;;;;;4.40;3.00;;;;;;;20.21;65.19;95952.06;10371640;28;96829;-71
2022/06/29 07:34:24;;;;;;;4.63;3.50;;;;;;;20.33;65.16;95945.03;10372855;28;96725;-71
2022/06/29 07:39:30;;;;;;;3.55;3.05;;;;;;;20.51;64.14;95946.09;10370636;28;101065;-71
2022/06/29 07:44:48;;;;;;;5.85;3.53;;;;;;;20.67;63.21;95940.25;10388309;28;96862;-72
2022/06/29 07:49:51;;;;;;;5.18;3.20;;;;;;;20.89;63.48;95940.69;10386104;28;96891;-71
2022/06/29 07:54:54;;;;;;;4.20;3.38;;;;;;;20.93;63.46;95944.53;10389024;28;97127;-71
2022/06/29 07:59:58;;;;;;;4.00;2.95;;;;;;;21.11;63.49;95956.97;10395866;28;97990;-71
2022/06/29 08:05:01;;;;;;;5.45;3.20;;;;;;;21.33;63.43;95948.59;10391244;28;97095;-72
2022/06/29 08:10:08;;;;;;;5.85;3.30;;;;;;;21.41;62.66;95952.78;10394951;28;96832;-71
2022/06/29 08:15:12;;;;;;;6.03;3.15;;;;;;;21.38;62.56;95943.41;10395297;28;96904;-71
2022/06/29 08:20:16;;;;;;;7.38;3.30;;;;;;;21.56;62.15;95947.09;10390288;28;96962;-72
2022/06/29 08:25:19;;;;;;;5.40;3.43;;;;;;;21.80;61.35;95943.50;10392795;28;96886;-71
2022/06/29 08:30:23;;;;;;;7.70;3.80;;;;;;;22.05;61.13;95939.88;10395000;28;96867;-71
2022/06/29 08:35:26;;;;;;;;;;;;;;;22.24;61.50;95922.00;10391578;28;96726;-71
2022/06/29 08:40:42;;;;;;;5.00;4.50;;;;;;;22.51;59.65;95927.72;10394936;28;96872;-71
2022/06/29 08:45:47;;;;;;;6.57;4.07;;;;;;;22.71;59.03;95927.38;10395949;28;97015;-71
2022/06/29 08:50:51;;;;;;;5.40;3.40;;;;;;;22.88;57.83;95926.69;10390037;28;97102;-72
2022/06/29 08:55:55;;;;;;;;;;;;;;;23.04;58.78;95922.50;10391376;28;97074;-71
2022/06/29 09:00:59;;;;;;;4.65;3.20;;;;;;;23.18;57.34;95923.84;10396339;28;96818;-71
2022/06/29 09:06:03;;;;;;;6.35;3.75;;;;;;;23.29;56.85;95920.41;10395560;28;96816;-71
2022/06/29 09:11:22;;;;;;;3.20;2.90;;;;;;;23.45;56.59;95920.69;10369965;28;96716;-71
2022/06/29 09:16:26;;;;;;;4.97;3.70;;;;;;;23.51;55.42;95915.19;10393067;28;97026;-71
2022/06/29 09:21:29;;;;;;;5.28;3.38;;;;;;;23.57;55.28;95916.13;10394793;28;97302;-71
2022/06/29 09:26:32;;;;;;;4.50;3.60;;;;;;;23.45;55.29;95902.84;10389227;28;99749;-71
2022/06/29 09:31:36;;;;;;;4.13;3.50;;;;;;;23.37;55.81;95898.69;10382541;28;96927;-71
2022/06/29 09:36:55;;;;;;;6.07;3.20;;;;;;;23.52;55.91;95897.38;10393700;28;96866;-71
2022/06/29 09:41:58;;;;;;;5.80;3.50;;;;;;;23.76;55.13;95882.06;10393753;28;97263;-72
2022/06/29 09:47:05;;;;;;;3.87;3.00;;;;;;;23.88;54.89;95887.31;10386555;28;98799;-72
2022/06/29 09:52:08;;;;;;;5.28;2.88;;;;;;;24.04;54.50;95886.56;10393118;28;96903;-71
2022/06/29 09:57:13;;;;;;;6.15;3.00;;;;;;;24.23;54.27;95881.81;10394103;28;96908;-72
2022/06/29 10:02:38;;;;;;;4.15;3.15;;;;;;;24.35;54.23;95879.06;10386558;28;96960;-71
2022/06/29 10:07:42;;;;;;;3.35;2.85;;;;;;;24.33;53.01;95881.16;10381220;28;96911;-72
2022/06/29 10:19:29;;;;;;;5.28;3.17;;;;;;;24.45;53.14;95876.56;10392118;28;97077;-72
2022/06/29 10:24:33;;;;;;;3.88;2.80;;;;;;;24.54;53.39;95874.28;10086519;28;97019;-72
2022/06/29 10:29:36;;;;;;;5.55;2.88;;;;;;;24.92;51.65;95869.19;10085614;28;97086;-72
2022/06/29 10:40:08;;;;;;;3.15;2.47;;;;;;;25.39;50.21;95879.38;10085978;28;99641;-72
2022/06/29 10:45:12;;;;;;;4.32;2.75;;;;;;;25.66;49.31;95873.28;10080547;28;98568;-72
2022/06/29 10:50:23;;;;;;;4.13;2.47;;;;;;;25.97;48.64;95863.69;10080565;28;97144;-72
2022/06/29 10:55:29;;;;;;;4.85;2.70;;;;;;;25.88;48.24;95860.66;10167041;28;99925;-72
2022/06/29 11:00:34;;;;;;;3.00;2.17;;;;;;;25.49;48.85;95863.44;10307169;28;99033;-72
2022/06/29 11:12:01;;;;;;;4.45;2.40;;;;;;;25.80;48.46;95853.88;10377077;28;97054;-71
2022/06/29 11:16:35;;;;;;;6.90;2.35;;;;;;;26.69;46.95;95843.59;10372866;28;96750;-72
2022/06/29 11:21:38;;;;;;;3.60;2.05;;;;;;;27.08;45.29;95835.22;10371684;28;96797;-72
2022/06/29 11:26:42;;;;;;;3.70;2.10;;;;;;;27.22;44.37;95832.84;10370915;28;97073;-72
2022/06/29 11:32:02;;;;;;;5.25;2.20;;;;;;;27.19;44.47;95824.53;10373500;28;97037;-72
2022/06/29 11:37:05;;;;;;;5.68;1.77;;;;;;;27.06;43.85;95826.63;10372073;28;96738;-72
2022/06/29 11:47:30;;;;;;;4.63;1.90;;;;;;;27.61;41.86;95813.63;10384199;28;97174;-72
2022/06/29 11:52:34;;;;;;;1.90;1.70;;;;;;;27.65;41.69;95800.53;10379560;28;96887;-72
2022/06/29 11:57:38;;;;;;;3.45;1.90;;;;;;;27.94;40.74;95787.34;10390119;28;96824;-71
2022/06/29 12:02:41;;;;;;;2.85;1.80;;;;;;;27.77;40.84;95795.69;10386654;28;96781;-71
2022/06/29 12:07:49;;;;;;;3.75;1.80;;;;;;;27.71;41.51;95795.97;10384869;28;96878;-72
2022/06/29 12:12:53;;;;;;;3.37;1.93;;;;;;;27.43;42.71;95785.44;10389532;28;97296;-71
2022/06/29 12:17:55;;;;;;;2.40;1.83;;;;;;;27.37;43.21;95783.00;10388539;28;98105;-71
2022/06/29 12:22:58;;;;;;;3.73;1.90;;;;;;;27.40;41.85;95777.91;10385040;28;96946;-72
2022/06/29 12:28:02;;;;;;;3.00;1.80;;;;;;;27.90;41.42;95774.75;10390040;28;96754;-71
2022/06/29 12:33:06;;;;;;;2.67;1.75;;;;;;;27.75;41.11;95779.06;10389235;28;96733;-72
2022/06/29 12:38:08;;;;;;;2.42;1.70;;;;;;;27.51;42.31;95770.69;10383319;28;96962;-72
2022/06/29 12:43:15;;;;;;;3.30;2.03;;;;;;;27.60;42.32;95766.41;10387914;27;96970;-72
2022/06/29 12:48:18;;;;;;;3.50;1.60;;;;;;;28.20;41.38;95764.00;10394967;28;96864;-72
2022/06/29 12:53:21;;;;;;;3.03;1.80;;;;;;;28.20;40.55;95758.63;10389991;28;96886;-72
2022/06/29 12:58:25;;;;;;;5.40;2.30;;;;;;;27.88;40.89;95755.44;10395105;28;97232;-72
2022/06/29 13:03:28;;;;;;;3.08;1.90;;;;;;;28.41;40.90;95753.22;10392302;28;96922;-72
2022/06/29 13:08:31;;;;;;;2.97;1.95;;;;;;;29.19;40.13;95751.81;10391039;28;96894;-72
2022/06/29 13:13:35;;;;;;;2.80;2.00;;;;;;;29.41;40.18;95743.34;10384940;28;96940;-72
2022/06/29 13:18:38;;;;;;;3.00;1.75;;;;;;;29.84;39.85;95737.41;10395523;28;98682;-72
2022/06/29 13:23:40;;;;;;;3.88;2.03;;;;;;;30.38;38.34;95744.44;10389117;28;97738;-72
2022/06/29 13:28:45;;;;;;;4.38;1.95;;;;;;;30.30;37.61;95734.28;10391257;28;96768;-72
2022/06/29 13:33:48;;;;;;;3.67;1.90;;;;;;;29.67;38.57;95740.50;10394514;28;99932;-72
2022/06/29 13:38:51;;;;;;;5.00;2.30;;;;;;;29.44;38.91;95736.63;10391783;28;96804;-72
2022/06/29 13:43:55;;;;;;;2.45;2.00;;;;;;;29.33;38.76;95720.56;10388038;28;97148;-72
2022/06/29 13:48:58;;;;;;;4.50;2.20;;;;;;;28.71;40.85;95724.66;10394275;28;97848;-72
2022/06/29 13:54:00;;;;;;;5.10;2.00;;;;;;;28.01;41.60;95717.28;10392667;28;96760;-71
2022/06/29 13:59:05;;;;;;;3.25;2.00;;;;;;;27.59;42.23;95713.00;10387095;28;96831;-72
2022/06/29 14:04:09;;;;;;;4.00;2.00;;;;;;;28.08;42.15;95717.81;10391297;28;97451;-72
2022/06/29 14:09:12;;;;;;;3.17;2.10;;;;;;;29.12;40.00;95719.88;10392913;28;97116;-72
2022/06/29 14:14:18;;;;;;;4.53;1.95;;;;;;;29.99;38.33;95704.13;10386570;28;97008;-72
2022/06/29 14:19:21;;;;;;;3.13;2.05;;;;;;;29.61;38.54;95703.94;10389471;28;96833;-72
2022/06/29 14:24:24;;;;;;;4.70;1.85;;;;;;;29.87;38.83;95696.44;10391163;28;96717;-69
2022/06/29 14:29:29;;;;;;;2.50;2.10;;;;;;;29.41;38.19;95694.13;10387708;28;96911;-69
2022/06/29 14:34:33;;;;;;;6.22;1.80;;;;;;;28.96;38.29;95689.56;10390870;28;96878;-69
2022/06/29 14:39:36;;;;;;;4.70;1.60;;;;;;;30.83;36.38;95685.69;10390593;28;97197;-69
2022/06/29 14:44:40;;;;;;;3.00;1.50;;;;;;;34.22;32.35;95680.88;10387605;28;97297;-69
2022/06/29 14:49:43;;;;;;;4.80;1.75;;;;;;;36.61;28.70;95678.22;10389302;28;96761;-69
2022/06/29 14:54:47;;;;;;;2.85;1.38;;;;;;;37.68;27.91;95677.09;10391953;28;96826;-70
2022/06/29 14:59:51;;;;;;;3.35;1.30;;;;;;;38.07;27.21;95678.47;10388571;28;96947;-69
2022/06/29 15:04:54;;;;;;;3.28;1.60;;;;;;;38.62;26.46;95673.63;10385658;28;96883;-69
2022/06/29 15:09:57;;;;;;;3.63;1.58;;;;;;;38.26;26.11;95667.03;10390557;28;97039;-69
2022/06/29 15:15:02;;;;;;;1.45;1.20;;;;;;;38.24;26.40;95655.69;10390200;28;96807;-69
2022/06/29 15:20:06;;;;;;;3.70;1.33;;;;;;;38.54;24.65;95655.44;10382924;28;96767;-70
2022/06/29 15:25:09;;;;;;;3.35;1.20;;;;;;;38.52;25.59;95651.44;10389814;28;96810;-70
2022/06/29 15:30:15;;;;;;;2.72;1.38;;;;;;;38.27;25.28;95644.09;10390588;28;97390;-70
2022/06/29 15:40:53;;;;;;;2.70;1.23;;;;;;;38.52;24.77;95638.63;10287739;28;98166;-69
2022/06/29 15:45:57;;;;;;;1.23;1.00;;;;;;;38.73;23.95;95637.72;10290747;28;97866;-70
2022/06/29 15:51:00;;;;;;;2.15;1.23;;;;;;;39.26;23.87;95633.00;10286264;28;97038;-69
2022/06/29 15:56:03;;;;;;;1.55;1.13;;;;;;;40.54;22.42;95634.75;10283777;28;98611;-70
2022/06/29 16:01:08;;;;;;;2.90;1.10;;;;;;;41.07;21.37;95628.88;10285965;28;98140;-70
2022/06/29 16:06:10;;;;;;;2.55;1.20;;;;;;;41.36;20.98;95623.16;10287245;28;97209;-70
2022/06/29 16:11:13;;;;;;;5.53;1.40;;;;;;;41.61;21.35;95618.97;10341215;28;100011;-71
2022/06/29 16:16:19;;;;;;;2.72;1.10;;;;;;;41.55;21.80;95625.88;10356567;28;98813;-70
2022/06/29 16:21:22;;;;;;;2.13;1.00;;;;;;;41.31;21.81;95609.75;10356550;28;96774;-71
2022/06/29 16:26:24;;;;;;;2.65;1.27;;;;;;;40.89;22.68;95612.03;10356284;28;98183;-69
2022/06/29 16:31:29;;;;;;;1.48;1.15;;;;;;;38.78;24.71;95600.03;10376727;28;98351;-69
2022/06/29 16:36:32;;;;;;;1.80;1.17;;;;;;;35.47;28.24;95603.63;10374932;28;97327;-69
2022/06/29 16:41:35;;;;;;;3.75;1.33;;;;;;;34.81;29.56;95599.19;10375729;28;97651;-69
2022/06/29 16:46:39;;;;;;;3.20;1.30;;;;;;;35.49;29.09;95598.66;10379305;28;97154;-69
2022/06/29 16:51:42;;;;;;;3.85;1.33;;;;;;;33.82;31.21;95588.72;10377944;28;96782;-69
2022/06/29 16:57:01;;;;;;;3.28;1.38;;;;;;;31.97;33.15;95596.44;10378876;28;96801;-68
2022/06/29 17:02:06;;;;;;;4.97;1.50;;;;;;;30.76;35.60;95590.09;10375386;28;97934;-68
2022/06/29 17:07:09;;;;;;;2.30;1.42;;;;;;;32.39;33.47;95584.75;10375948;28;99807;-69
2022/06/29 17:12:12;;;;;;;2.90;1.20;;;;;;;34.71;30.94;95577.81;10373299;28;96921;-69
2022/06/29 17:17:16;;;;;;;4.90;1.83;;;;;;;36.38;28.99;95582.50;10362259;28;97371;-70
2022/06/29 17:22:19;;;;;;;2.35;1.20;;;;;;;37.31;27.88;95587.09;10349817;28;96883;-69
2022/06/29 17:27:22;;;;;;;2.33;1.10;;;;;;;37.68;27.64;95590.72;10349431;28;97107;-69
2022/06/29 17:32:26;;;;;;;2.72;1.27;;;;;;;35.88;28.46;95592.16;10345051;28;97254;-69
2022/06/29 17:37:29;;;;;;;2.67;1.23;;;;;;;33.26;31.85;95585.53;10344272;28;97063;-69
2022/06/29 17:42:33;;;;;;;2.85;1.25;;;;;;;31.59;33.65;95583.06;10344645;28;96974;-69
2022/06/29 17:47:37;;;;;;;3.88;1.25;;;;;;;30.35;35.63;95582.53;10346207;28;96978;-68
2022/06/29 17:52:40;;;;;;;2.38;1.50;;;;;;;29.44;37.34;95592.13;10375921;28;97011;-71
2022/06/29 17:57:44;;;;;;;1.95;1.20;;;;;;;28.60;39.31;95590.31;10364014;28;96861;-71
2022/06/29 18:02:48;;;;;;;2.40;1.35;;;;;;;28.12;40.60;95595.38;10370026;28;97948;-71
2022/06/29 18:07:54;;;;;;;3.95;1.55;;;;;;;27.67;41.69;95589.09;10374807;28;96963;-71
2022/06/29 18:12:57;;;;;;;3.37;1.60;;;;;;;27.31;42.24;95583.75;10369873;28;96996;-71
2022/06/29 18:18:01;;;;;;;4.82;1.85;;;;;;;26.99;43.38;95584.00;10368159;28;97106;-71
2022/06/29 18:23:04;;;;;;;2.50;1.40;;;;;;;26.69;43.67;95583.72;10374069;28;96791;-71
2022/06/29 18:28:07;;;;;;;3.23;1.67;;;;;;;26.49;43.98;95591.72;10370356;28;97768;-71
2022/06/29 18:33:11;;;;;;;2.40;1.60;;;;;;;26.22;44.10;95586.50;10372155;28;97042;-71
2022/06/29 18:38:14;;;;;;;3.05;1.45;;;;;;;26.14;44.74;95583.28;10367228;28;98173;-72
2022/06/29 18:43:17;;;;;;;4.78;1.50;;;;;;;25.96;44.89;95589.91;10371696;28;97027;-71
2022/06/29 18:48:23;;;;;;;3.25;1.40;;;;;;;25.62;45.78;95584.13;10375192;28;97033;-71
2022/06/29 18:53:26;;;;;;;3.10;1.50;;;;;;;25.42;46.30;95590.09;10372215;28;97155;-71
2022/06/29 18:58:29;;;;;;;3.77;1.50;;;;;;;25.35;46.25;95589.53;10358949;28;96953;-71
2022/06/29 19:03:33;;;;;;;3.58;1.48;;;;;;;25.28;46.24;95588.94;10374671;28;97643;-71
2022/06/29 19:08:36;;;;;;;3.80;1.73;;;;;;;25.23;46.78;95593.19;10374955;28;100919;-72
2022/06/29 19:13:39;;;;;;;2.90;1.35;;;;;;;25.17;46.61;95604.91;10362944;28;96787;-72
2022/06/29 19:18:44;;;;;;;2.80;1.60;;;;;;;25.07;46.54;95610.16;10365113;28;98170;-71
2022/06/29 19:23:50;;;;;;;3.50;1.70;;;;;;;24.82;47.18;95619.56;10367087;28;99284;-72
2022/06/29 19:28:53;;;;;;;2.13;1.35;;;;;;;24.72;47.43;95614.09;10351274;28;98291;-72
2022/06/29 19:33:58;;;;;;;2.77;1.63;;;;;;;24.61;47.59;95628.41;10372170;28;97304;-72
2022/06/29 19:39:01;;;;;;;2.28;1.48;;;;;;;24.48;47.80;95641.09;10374095;28;96807;-71
2022/06/29 19:44:04;;;;;;;3.83;1.60;;;;;;;24.32;48.16;95650.00;10374096;28;98894;-73
2022/06/29 19:49:09;;;;;;;2.47;1.57;;;;;;;24.11;48.83;95657.75;10374213;28;96960;-71
2022/06/29 19:54:12;;;;;;;2.50;1.90;;;;;;;24.00;48.75;95655.97;10376851;28;97046;-71
2022/06/29 19:59:15;;;;;;;3.30;1.80;;;;;;;23.82;49.80;95654.38;10379985;28;97109;-71
2022/06/29 20:04:20;;;;;;;4.18;1.98;;;;;;;23.60;49.82;95659.66;10381201;28;97288;-72
2022/06/29 20:09:24;;;;;;;1.90;1.60;;;;;;;23.45;50.49;95681.59;10379468;28;96727;-71
2022/06/29 20:14:27;;;;;;;3.72;1.67;;;;;;;23.36;50.61;95683.84;10377011;28;96909;-72
2022/06/29 20:19:31;;;;;;;2.42;1.58;;;;;;;23.30;50.84;95690.13;10378916;28;97096;-71
2022/06/29 20:24:34;;;;;;;2.72;1.55;;;;;;;23.10;51.61;95690.59;10375307;28;97133;-72
2022/06/29 20:29:37;;;;;;;3.00;1.83;;;;;;;22.93;51.45;95701.19;10375155;28;98310;-71
2022/06/29 20:34:41;;;;;;;3.38;1.80;;;;;;;22.81;51.63;95705.78;10378260;28;96961;-72
2022/06/29 20:39:44;;;;;;;;;;;;;;;22.82;51.23;95704.72;10377369;28;97289;-71
2022/06/29 20:50:08;;;;;;;1.60;1.50;;;;;;;22.61;52.04;95699.03;10369537;28;97306;-71
2022/06/29 20:55:12;;;;;;;3.40;1.80;;;;;;;22.44;52.84;95700.78;10371749;28;100454;-71
2022/06/29 21:00:15;;;;;;;2.60;1.60;;;;;;;22.19;53.67;95696.53;10367972;28;100466;-71
2022/06/29 21:05:20;;;;;;;4.13;1.48;;;;;;;21.95;54.47;95703.72;10373115;28;96947;-71
2022/06/29 21:10:23;;;;;;;4.35;2.13;;;;;;;21.84;54.76;95712.53;10371451;28;97981;-71
2022/06/29 21:15:26;;;;;;;2.13;1.90;;;;;;;21.74;55.41;95712.31;10374610;28;97108;-72
2022/06/29 21:20:31;;;;;;;2.17;1.80;;;;;;;21.57;56.08;95705.00;10372607;28;96855;-71
2022/06/29 21:25:33;;;;;;;;;;;;;;;21.48;55.32;95715.16;10351006;28;97232;-71
2022/06/29 21:30:36;;;;;;;3.20;2.33;;;;;;;21.41;55.83;95724.25;10348629;28;98020;-71
2022/06/29 21:35:40;;;;;;;2.95;2.00;;;;;;;21.12;57.85;95713.47;10345643;28;97470;-71
2022/06/29 21:40:43;;;;;;;3.20;2.03;;;;;;;20.78;57.54;95726.38;10356257;28;96784;-71
2022/06/29 21:45:46;;;;;;;3.40;1.80;;;;;;;20.72;57.79;95730.72;10367913;28;97085;-72
2022/06/29 21:56:11;;;;;;;2.95;2.00;;;;;;;20.58;58.63;95729.25;10371126;28;97056;-72
2022/06/29 22:01:14;;;;;;;4.82;2.00;;;;;;;20.45;59.67;95724.91;10375548;28;96989;-71
2022/06/29 22:06:19;;;;;;;4.75;2.13;;;;;;;20.25;60.63;95727.81;10374700;28;97293;-70
2022/06/29 22:11:22;;;;;;;7.28;5.88;;;;;;;20.04;62.00;95717.63;10371489;28;96852;-70
2022/06/29 22:16:25;;;;;;;6.40;3.08;;;;;;;19.82;62.75;95720.72;10375279;28;96824;-72
2022/06/29 22:21:29;;;;;;;2.60;2.25;;;;;;;19.70;62.61;95719.78;10373209;28;96897;-71
2022/06/29 22:26:32;;;;;;;4.72;3.42;;;;;;;19.67;62.86;95725.50;10374847;28;97252;-69
2022/06/29 22:31:41;;;;;;;3.55;2.40;;;;;;;19.56;62.98;95733.13;10374901;28;96830;-71
2022/06/29 22:36:45;;;;;;;4.57;2.10;;;;;;;19.46;64.17;95729.34;10372524;28;97107;-71
2022/06/29 22:41:53;;;;;;;2.47;1.83;;;;;;;19.30;64.18;95726.19;10372708;28;96805;-71
2022/06/29 22:46:56;;;;;;;2.53;1.95;;;;;;;19.11;64.59;95714.72;10374150;28;97965;-71
2022/06/29 22:52:00;;;;;;;3.05;2.08;;;;;;;19.05;64.37;95715.56;10372459;28;97002;-71
2022/06/29 22:57:04;;;;;;;3.50;1.98;;;;;;;18.90;64.63;95713.22;10369365;28;97325;-71
2022/06/29 23:02:07;;;;;;;4.70;2.03;;;;;;;18.81;65.50;95715.28;10371934;28;97082;-71
2022/06/29 23:07:11;;;;;;;3.50;2.08;;;;;;;18.75;65.77;95705.53;10372958;28;100551;-72
2022/06/29 23:12:32;;;;;;;3.20;2.05;;;;;;;18.63;65.58;95712.53;10367800;28;97716;-71
2022/06/29 23:17:36;;;;;;;4.75;2.92;;;;;;;18.47;66.39;95719.91;10372820;28;96938;-71
2022/06/29 23:22:41;;;;;;;4.32;2.30;;;;;;;18.43;66.79;95718.72;10372898;28;96981;-71
2022/06/29 23:27:43;;;;;;;3.78;2.13;;;;;;;18.37;67.06;95719.53;10369474;28;97337;-71
2022/06/29 23:32:46;;;;;;;4.15;2.05;;;;;;;18.25;67.43;95714.09;10372854;28;96752;-71
2022/06/29 23:38:07;;;;;;;3.70;2.10;;;;;;;18.20;67.24;95707.81;10372953;28;96947;-71
2022/06/29 23:43:09;;;;;;;5.13;2.10;;;;;;;18.27;67.05;95708.59;10369602;28;96789;-71
2022/06/29 23:48:12;;;;;;;3.35;2.00;;;;;;;18.27;67.05;95708.59;10370360;28;96889;-71
2022/06/29 23:53:16;;;;;;;2.45;2.08;;;;;;;18.20;66.66;95702.53;10373334;28;97150;-71
2022/06/29 23:58:19;;;;;;;3.22;2.17;;;;;;;18.05;67.40;95706.22;10373589;28;97337;-71
